Time;durP1;ratioP1;P1;durP2;ratioP2;P2;SDS_P1;SDS_P2;PMS_P1;PMS_P2;Temp;Humidity;BMP_temperature;BMP_pressure;BME280_temperature;BME280_humidity;BME280_pressure;Samples;Min_cycle;Max_cycle;Signal;HPM_P1;HPM_P2
2021/07/17 00:01:52;;;;;;;3.77;3.30;;;;;;;;;;5073061;28;20490;-72
2021/07/17 00:04:18;;;;;;;7.37;5.13;;;;;;;;;;5075750;28;20912;-72
2021/07/17 00:06:44;;;;;;;6.50;5.00;;;;;;;;;;5074439;28;20545;-72
2021/07/17 00:09:10;;;;;;;5.80;5.13;;;;;;;;;;5075535;28;20435;-72
2021/07/17 00:11:36;;;;;;;5.63;4.43;;;;;;;;;;5062859;28;20429;-72
2021/07/17 00:14:02;;;;;;;5.77;5.00;;;;;;;;;;5055541;28;20491;-72
2021/07/17 00:16:28;;;;;;;8.67;5.60;;;;;;;;;;5076566;28;20558;-72
2021/07/17 00:18:55;;;;;;;9.53;5.10;;;;;;;;;;5095535;28;20406;-72
2021/07/17 00:21:22;;;;;;;5.97;5.33;;;;;;;;;;5092376;28;20428;-72
2021/07/17 00:23:48;;;;;;;8.13;5.67;;;;;;;;;;5095765;28;20840;-72
2021/07/17 00:26:14;;;;;;;6.03;5.10;;;;;;;;;;5084101;28;20453;-72
2021/07/17 00:28:40;;;;;;;8.20;6.37;;;;;;;;;;5090819;28;20463;-72
2021/07/17 00:31:06;;;;;;;5.93;5.33;;;;;;;;;;5081010;28;20431;-72
2021/07/17 00:33:33;;;;;;;7.03;5.83;;;;;;;;;;5095275;28;20423;-72
2021/07/17 00:35:59;;;;;;;8.20;5.57;;;;;;;;;;5087202;28;20984;-72
2021/07/17 00:38:25;;;;;;;7.30;6.60;;;;;;;;;;5075175;28;20401;-72
2021/07/17 00:40:51;;;;;;;6.97;5.77;;;;;;;;;;5073913;28;20431;-72
2021/07/17 00:43:17;;;;;;;11.73;6.47;;;;;;;;;;5090467;28;20417;-72
2021/07/17 00:45:43;;;;;;;6.70;5.47;;;;;;;;;;5073560;28;20485;-72
2021/07/17 00:48:09;;;;;;;7.57;6.20;;;;;;;;;;5074542;28;20889;-72
2021/07/17 00:50:35;;;;;;;7.07;6.00;;;;;;;;;;5072113;28;20481;-72
2021/07/17 00:53:01;;;;;;;7.73;6.10;;;;;;;;;;5074916;28;20773;-72
2021/07/17 00:55:28;;;;;;;8.07;5.50;;;;;;;;;;5073375;28;20459;-72
2021/07/17 00:57:55;;;;;;;5.43;4.80;;;;;;;;;;5054834;28;20406;-72
2021/07/17 01:00:22;;;;;;;6.43;5.73;;;;;;;;;;5054522;28;20448;-72
2021/07/17 01:03:20;;;;;;;8.03;5.13;;;;;;;;;;5073607;28;20760;-72
2021/07/17 01:05:47;;;;;;;9.50;5.37;;;;;;;;;;5041592;28;20461;-72
2021/07/17 01:08:13;;;;;;;5.87;5.27;;;;;;;;;;5094583;28;20487;-72
2021/07/17 01:10:39;;;;;;;10.13;5.17;;;;;;;;;;5092749;28;20404;-72
2021/07/17 01:13:06;;;;;;;6.07;5.03;;;;;;;;;;5094623;28;20422;-72
2021/07/17 01:15:32;;;;;;;6.30;5.50;;;;;;;;;;5083638;28;20847;-72
2021/07/17 01:17:58;;;;;;;8.93;5.60;;;;;;;;;;5094034;28;20439;-72
2021/07/17 01:20:25;;;;;;;5.43;4.90;;;;;;;;;;5074193;28;20479;-72
2021/07/17 01:22:51;;;;;;;6.37;5.23;;;;;;;;;;5067281;28;20528;-72
2021/07/17 01:25:17;;;;;;;8.10;6.10;;;;;;;;;;5074201;28;20829;-72
2021/07/17 01:27:43;;;;;;;6.70;5.33;;;;;;;;;;5086071;28;20481;-72
2021/07/17 01:30:11;;;;;;;8.47;7.40;;;;;;;;;;5094207;28;20392;-72
2021/07/17 01:32:37;;;;;;;5.83;5.23;;;;;;;;;;5092383;28;20438;-72
2021/07/17 01:35:03;;;;;;;6.37;5.70;;;;;;;;;;5094096;28;20452;-70
2021/07/17 01:37:29;;;;;;;7.50;4.90;;;;;;;;;;5092275;28;20780;-71
2021/07/17 01:39:55;;;;;;;7.37;5.63;;;;;;;;;;5094388;28;20801;-70
2021/07/17 01:42:22;;;;;;;9.20;5.30;;;;;;;;;;5083038;28;20436;-70
2021/07/17 01:44:48;;;;;;;5.33;4.70;;;;;;;;;;5072696;28;20436;-71
2021/07/17 01:47:14;;;;;;;6.30;5.07;;;;;;;;;;5072956;28;20823;-70
2021/07/17 01:49:41;;;;;;;6.20;5.50;;;;;;;;;;5073868;28;20468;-71
2021/07/17 01:52:07;;;;;;;7.83;5.03;;;;;;;;;;5079496;28;20509;-70
2021/07/17 01:54:34;;;;;;;6.80;5.93;;;;;;;;;;5093750;28;20471;-70
2021/07/17 01:57:04;;;;;;;5.00;4.50;;;;;;;;;;5092056;28;20462;-70
2021/07/17 01:59:30;;;;;;;7.00;4.90;;;;;;;;;;5093028;28;20399;-70
2021/07/17 02:01:56;;;;;;;7.70;5.87;;;;;;;;;;5091715;28;20426;-70
2021/07/17 02:04:22;;;;;;;7.77;5.50;;;;;;;;;;5093387;28;20437;-71
2021/07/17 02:06:48;;;;;;;5.50;4.90;;;;;;;;;;5088085;28;20429;-71
2021/07/17 02:09:14;;;;;;;7.73;5.57;;;;;;;;;;5073332;28;20401;-71
2021/07/17 02:11:40;;;;;;;5.60;4.90;;;;;;;;;;5074404;28;20747;-71
2021/07/17 02:14:06;;;;;;;5.13;4.50;;;;;;;;;;5093417;28;20884;-71
2021/07/17 02:16:32;;;;;;;6.97;5.80;;;;;;;;;;5090977;28;20461;-71
2021/07/17 02:19:04;;;;;;;7.27;5.77;;;;;;;;;;5091709;28;20423;-71
2021/07/17 02:21:30;;;;;;;7.90;5.83;;;;;;;;;;5091390;28;20864;-71
2021/07/17 02:23:56;;;;;;;6.00;5.40;;;;;;;;;;5093401;28;20408;-71
2021/07/17 02:26:22;;;;;;;6.23;5.40;;;;;;;;;;5093204;28;20423;-71
2021/07/17 02:28:48;;;;;;;7.13;5.67;;;;;;;;;;5071982;28;20428;-71
2021/07/17 02:31:14;;;;;;;11.07;6.03;;;;;;;;;;5072973;28;20432;-71
2021/07/17 02:33:40;;;;;;;6.57;5.73;;;;;;;;;;5070601;28;20437;-71
2021/07/17 02:36:06;;;;;;;8.47;6.20;;;;;;;;;;5072795;28;20534;-71
2021/07/17 02:38:32;;;;;;;10.70;6.63;;;;;;;;;;5087684;28;20424;-70
2021/07/17 02:40:58;;;;;;;8.37;6.70;;;;;;;;;;5072864;28;20877;-70
2021/07/17 02:43:24;;;;;;;7.40;6.70;;;;;;;;;;5087104;28;20467;-70
2021/07/17 02:45:50;;;;;;;10.97;6.87;;;;;;;;;;5093052;28;20452;-70
2021/07/17 02:48:16;;;;;;;8.67;6.67;;;;;;;;;;5077158;28;20936;-70
2021/07/17 02:50:42;;;;;;;7.33;6.63;;;;;;;;;;5066916;28;20426;-71
2021/07/17 02:53:08;;;;;;;8.90;6.97;;;;;;;;;;5063307;28;20457;-71
2021/07/17 02:55:34;;;;;;;9.37;7.40;;;;;;;;;;5068014;28;20465;-71
2021/07/17 02:58:00;;;;;;;8.83;7.73;;;;;;;;;;5063997;28;20963;-71
2021/07/17 03:00:32;;;;;;;8.67;7.63;;;;;;;;;;5072713;28;20400;-71
2021/07/17 03:02:58;;;;;;;8.50;6.30;;;;;;;;;;5072889;28;20429;-71
2021/07/17 03:05:24;;;;;;;8.20;7.10;;;;;;;;;;5072185;28;20495;-71
2021/07/17 03:07:50;;;;;;;10.77;8.30;;;;;;;;;;5081430;28;20798;-71
2021/07/17 03:10:16;;;;;;;10.87;7.70;;;;;;;;;;5093815;28;20868;-71
2021/07/17 03:12:42;;;;;;;8.20;7.33;;;;;;;;;;5085385;28;20432;-71
2021/07/17 03:15:09;;;;;;;13.00;6.80;;;;;;;;;;5096807;28;20459;-71
2021/07/17 03:17:35;;;;;;;9.03;8.00;;;;;;;;;;5095012;28;20434;-70
2021/07/17 03:20:01;;;;;;;10.80;9.07;;;;;;;;;;5097011;28;20561;-70
2021/07/17 03:22:27;;;;;;;10.27;8.57;;;;;;;;;;5095189;28;20427;-71
2021/07/17 03:24:53;;;;;;;10.43;8.53;;;;;;;;;;5093483;28;20518;-71
2021/07/17 03:27:19;;;;;;;8.60;7.70;;;;;;;;;;5090505;28;20462;-70
2021/07/17 03:29:45;;;;;;;11.03;9.80;;;;;;;;;;5076365;28;20488;-70
2021/07/17 03:32:11;;;;;;;10.20;8.43;;;;;;;;;;5075514;28;20892;-71
2021/07/17 03:34:37;;;;;;;9.57;8.30;;;;;;;;;;5076086;28;20447;-70
2021/07/17 03:37:03;;;;;;;11.70;9.03;;;;;;;;;;5087828;28;20420;-71
2021/07/17 03:39:29;;;;;;;10.80;9.70;;;;;;;;;;5083473;28;20929;-71
2021/07/17 03:41:55;;;;;;;9.63;7.80;;;;;;;;;;5056529;28;20444;-71
2021/07/17 03:44:24;;;;;;;10.00;8.97;;;;;;;;;;5075991;28;20437;-70
2021/07/17 03:46:51;;;;;;;12.30;9.30;;;;;;;;;;5076047;28;20462;-70
2021/07/17 03:49:17;;;;;;;12.70;9.80;;;;;;;;;;5075429;28;20463;-70
2021/07/17 03:51:43;;;;;;;10.90;9.73;;;;;;;;;;5072005;28;20526;-71
2021/07/17 03:54:10;;;;;;;9.30;8.40;;;;;;;;;;5073935;28;20924;-70
2021/07/17 03:56:36;;;;;;;11.00;9.00;;;;;;;;;;5075720;28;20472;-70
2021/07/17 03:59:02;;;;;;;11.50;9.30;;;;;;;;;;5057923;28;20517;-71
2021/07/17 04:01:28;;;;;;;10.10;8.60;;;;;;;;;;5056014;28;20496;-70
2021/07/17 04:03:54;;;;;;;16.20;9.57;;;;;;;;;;5088241;28;20900;-71
2021/07/17 04:06:20;;;;;;;10.57;9.47;;;;;;;;;;5095921;28;20527;-71
2021/07/17 04:08:46;;;;;;;9.23;8.33;;;;;;;;;;5064826;28;20441;-71
2021/07/17 04:11:12;;;;;;;11.17;8.57;;;;;;;;;;5055574;28;20421;-71
2021/07/17 04:13:38;;;;;;;10.50;9.40;;;;;;;;;;5083869;28;20429;-72
2021/07/17 04:16:04;;;;;;;10.90;9.33;;;;;;;;;;5075311;28;20536;-71
2021/07/17 04:18:30;;;;;;;10.33;9.27;;;;;;;;;;5086413;28;20505;-72
2021/07/17 04:20:56;;;;;;;10.53;9.43;;;;;;;;;;5095588;28;20396;-71
2021/07/17 04:23:23;;;;;;;11.43;10.07;;;;;;;;;;5082495;28;20759;-71
2021/07/17 04:25:49;;;;;;;9.80;8.57;;;;;;;;;;5075323;28;20421;-72
2021/07/17 04:28:15;;;;;;;9.97;9.00;;;;;;;;;;5083621;28;20432;-72
2021/07/17 04:30:41;;;;;;;11.60;9.70;;;;;;;;;;5094877;28;20428;-71
2021/07/17 04:33:07;;;;;;;11.00;9.90;;;;;;;;;;5069306;28;20924;-71
2021/07/17 04:35:33;;;;;;;13.90;9.83;;;;;;;;;;5074935;28;20964;-71
2021/07/17 04:37:59;;;;;;;12.00;9.77;;;;;;;;;;5080573;28;20510;-72
2021/07/17 04:40:25;;;;;;;11.57;10.37;;;;;;;;;;5095181;28;20906;-71
2021/07/17 04:42:51;;;;;;;12.63;11.20;;;;;;;;;;5086459;28;20424;-72
2021/07/17 04:45:17;;;;;;;16.67;12.90;;;;;;;;;;5075195;28;20425;-72
2021/07/17 04:47:43;;;;;;;17.13;13.20;;;;;;;;;;5070165;28;20429;-71
2021/07/17 04:50:09;;;;;;;18.00;13.10;;;;;;;;;;5054801;28;20894;-71
2021/07/17 04:52:35;;;;;;;16.13;13.10;;;;;;;;;;5059863;28;20457;-72
2021/07/17 04:55:01;;;;;;;20.00;14.57;;;;;;;;;;5095193;28;20468;-71
2021/07/17 04:57:27;;;;;;;20.07;13.93;;;;;;;;;;5092994;28;20775;-72
2021/07/17 04:59:53;;;;;;;29.37;15.23;;;;;;;;;;5095177;28;20408;-71
2021/07/17 05:02:19;;;;;;;23.87;16.73;;;;;;;;;;5093372;28;20820;-71
2021/07/17 05:04:45;;;;;;;21.40;16.50;;;;;;;;;;5094544;28;20475;-71
2021/07/17 05:07:11;;;;;;;20.73;15.97;;;;;;;;;;5079014;28;20870;-71
2021/07/17 05:09:37;;;;;;;26.50;18.00;;;;;;;;;;5092319;28;20514;-71
2021/07/17 05:12:04;;;;;;;23.23;18.20;;;;;;;;;;5094883;28;20427;-71
2021/07/17 05:14:30;;;;;;;22.33;16.33;;;;;;;;;;5092398;28;20427;-71
2021/07/17 05:16:56;;;;;;;25.40;16.97;;;;;;;;;;5094507;28;20392;-71
2021/07/17 05:19:22;;;;;;;28.90;17.93;;;;;;;;;;5092505;28;20837;-71
2021/07/17 05:21:48;;;;;;;22.43;17.57;;;;;;;;;;5094350;28;20433;-71
2021/07/17 05:24:14;;;;;;;21.17;16.80;;;;;;;;;;5079232;28;20478;-71
2021/07/17 05:26:40;;;;;;;20.47;15.87;;;;;;;;;;5074193;28;20932;-71
2021/07/17 05:29:06;;;;;;;23.93;17.50;;;;;;;;;;5081994;28;20812;-71
2021/07/17 05:31:32;;;;;;;29.00;20.00;;;;;;;;;;5094307;28;20760;-71
2021/07/17 05:33:58;;;;;;;26.17;18.67;;;;;;;;;;5091245;28;20428;-71
2021/07/17 05:36:24;;;;;;;25.47;19.63;;;;;;;;;;5094097;28;20456;-71
2021/07/17 05:38:50;;;;;;;30.97;20.60;;;;;;;;;;5079366;28;20513;-71
2021/07/17 05:41:16;;;;;;;28.87;19.87;;;;;;;;;;5054003;28;20406;-71
2021/07/17 05:43:42;;;;;;;29.47;21.30;;;;;;;;;;5063639;28;20419;-71
2021/07/17 05:46:08;;;;;;;25.73;20.00;;;;;;;;;;5093947;28;20416;-71
2021/07/17 05:48:34;;;;;;;32.10;20.10;;;;;;;;;;5084963;28;20433;-71
2021/07/17 05:51:00;;;;;;;32.67;19.20;;;;;;;;;;5053737;28;20394;-71
2021/07/17 05:53:26;;;;;;;30.47;21.27;;;;;;;;;;5072253;28;20779;-71
2021/07/17 05:55:53;;;;;;;25.20;20.43;;;;;;;;;;5093942;28;20459;-71
2021/07/17 05:58:20;;;;;;;29.33;22.33;;;;;;;;;;5090441;28;20413;-71
2021/07/17 06:00:46;;;;;;;30.43;22.00;;;;;;;;;;5073471;28;20396;-71
2021/07/17 06:03:12;;;;;;;32.47;21.23;;;;;;;;;;5072506;28;20424;-71
2021/07/17 06:05:38;;;;;;;30.47;21.10;;;;;;;;;;5053492;28;20957;-71
2021/07/17 06:08:05;;;;;;;32.10;21.00;;;;;;;;;;5053362;28;20413;-71
2021/07/17 06:10:31;;;;;;;28.20;21.43;;;;;;;;;;5091103;28;20447;-71
2021/07/17 06:12:57;;;;;;;30.83;20.67;;;;;;;;;;5093557;28;20401;-71
2021/07/17 06:15:23;;;;;;;31.93;21.13;;;;;;;;;;5056391;28;20465;-71
2021/07/17 06:17:53;;;;;;;30.20;20.90;;;;;;;;;;5053416;28;20467;-71
2021/07/17 06:20:20;;;;;;;36.53;22.63;;;;;;;;;;5086996;28;20424;-71
2021/07/17 06:22:46;;;;;;;31.77;22.13;;;;;;;;;;5093529;28;20389;-71
2021/07/17 06:25:12;;;;;;;30.00;22.33;;;;;;;;;;5063718;28;20454;-71
2021/07/17 06:27:38;;;;;;;33.50;23.10;;;;;;;;;;5073499;28;20924;-71
2021/07/17 06:30:05;;;;;;;35.93;21.33;;;;;;;;;;5086004;28;20428;-71
2021/07/17 06:32:31;;;;;;;29.43;21.40;;;;;;;;;;5093288;28;20452;-71
2021/07/17 06:34:57;;;;;;;36.63;23.10;;;;;;;;;;5065198;28;20461;-71
2021/07/17 06:37:23;;;;;;;27.80;21.20;;;;;;;;;;5052913;28;20409;-70
2021/07/17 06:39:49;;;;;;;36.27;21.83;;;;;;;;;;5052702;28;20425;-71
2021/07/17 06:42:15;;;;;;;28.57;21.77;;;;;;;;;;5052946;28;20412;-71
2021/07/17 06:44:41;;;;;;;30.80;23.30;;;;;;;;;;5060839;28;20448;-71
2021/07/17 06:47:07;;;;;;;29.07;21.60;;;;;;;;;;5072837;28;20404;-71
2021/07/17 06:49:33;;;;;;;26.40;20.37;;;;;;;;;;5069394;28;20424;-71
2021/07/17 06:51:59;;;;;;;35.10;22.33;;;;;;;;;;5088334;28;20417;-71
2021/07/17 06:54:25;;;;;;;37.70;23.00;;;;;;;;;;5079138;28;20424;-71
2021/07/17 06:56:51;;;;;;;35.40;24.10;;;;;;;;;;5093038;28;20402;-71
2021/07/17 06:59:17;;;;;;;32.07;22.10;;;;;;;;;;5088829;28;20916;-71
2021/07/17 07:01:43;;;;;;;33.63;21.30;;;;;;;;;;5092854;28;20495;-71
2021/07/17 07:04:09;;;;;;;38.47;22.20;;;;;;;;;;5091051;28;20452;-71
2021/07/17 07:06:35;;;;;;;33.60;21.57;;;;;;;;;;5092602;28;20444;-71
2021/07/17 07:09:01;;;;;;;35.20;24.23;;;;;;;;;;5086959;28;20800;-71
2021/07/17 07:11:27;;;;;;;31.90;21.93;;;;;;;;;;5070688;28;20425;-71
2021/07/17 07:13:53;;;;;;;34.10;22.30;;;;;;;;;;5084974;28;20433;-72
2021/07/17 07:16:19;;;;;;;36.73;22.40;;;;;;;;;;5052330;28;20457;-71
2021/07/17 07:18:45;;;;;;;41.47;24.77;;;;;;;;;;5054185;28;20432;-71
2021/07/17 07:21:11;;;;;;;29.20;21.53;;;;;;;;;;5092818;28;20400;-72
2021/07/17 07:23:37;;;;;;;38.13;23.27;;;;;;;;;;5091242;28;20391;-72
2021/07/17 07:26:03;;;;;;;36.73;23.60;;;;;;;;;;5052485;28;20544;-71
2021/07/17 07:28:29;;;;;;;51.47;36.40;;;;;;;;;;5052447;28;20405;-71
2021/07/17 07:30:55;;;;;;;35.40;20.23;;;;;;;;;;5072399;28;20991;-71
2021/07/17 07:33:21;;;;;;;31.63;22.50;;;;;;;;;;5053570;28;20496;-71
2021/07/17 07:35:47;;;;;;;33.80;23.77;;;;;;;;;;5052079;28;20500;-71
2021/07/17 07:38:13;;;;;;;35.47;22.37;;;;;;;;;;5052273;28;20442;-71
2021/07/17 07:40:39;;;;;;;31.00;22.33;;;;;;;;;;5084168;28;20458;-71
2021/07/17 07:43:05;;;;;;;32.10;21.77;;;;;;;;;;5092587;28;20449;-71
2021/07/17 07:45:31;;;;;;;32.17;21.47;;;;;;;;;;5090490;28;20471;-71
2021/07/17 07:47:57;;;;;;;30.80;21.67;;;;;;;;;;5082326;28;20440;-72
2021/07/17 07:50:24;;;;;;;35.43;21.40;;;;;;;;;;5084438;28;20431;-72
2021/07/17 07:52:50;;;;;;;30.57;20.43;;;;;;;;;;5092441;28;20419;-72
2021/07/17 07:55:17;;;;;;;30.90;21.43;;;;;;;;;;5066315;28;20468;-72
2021/07/17 07:57:43;;;;;;;36.83;22.27;;;;;;;;;;5053463;28;20414;-72
2021/07/17 08:00:10;;;;;;;33.27;19.97;;;;;;;;;;5055521;28;20490;-72
2021/07/17 08:02:36;;;;;;;31.00;20.30;;;;;;;;;;5056000;28;20433;-72
2021/07/17 08:05:02;;;;;;;31.30;21.70;;;;;;;;;;5070961;28;20819;-72
2021/07/17 08:07:28;;;;;;;34.00;21.90;;;;;;;;;;5062583;28;20436;-72
2021/07/17 08:09:54;;;;;;;29.23;19.90;;;;;;;;;;5072491;28;20423;-72
2021/07/17 08:12:20;;;;;;;27.80;20.00;;;;;;;;;;5096073;28;20671;-72
2021/07/17 08:14:46;;;;;;;26.00;20.63;;;;;;;;;;5079739;28;20479;-72
2021/07/17 08:17:12;;;;;;;30.20;19.40;;;;;;;;;;5055466;28;20464;-72
2021/07/17 08:19:38;;;;;;;32.20;20.70;;;;;;;;;;5067030;28;20477;-72
2021/07/17 08:22:04;;;;;;;30.97;21.73;;;;;;;;;;5095940;28;20407;-72
2021/07/17 08:24:30;;;;;;;26.83;20.30;;;;;;;;;;5084754;28;20779;-72
2021/07/17 08:26:56;;;;;;;28.23;19.67;;;;;;;;;;5055260;28;20485;-72
2021/07/17 08:29:22;;;;;;;25.73;19.43;;;;;;;;;;5061550;28;20431;-72
2021/07/17 08:31:48;;;;;;;31.60;19.87;;;;;;;;;;5095675;28;20411;-72
2021/07/17 08:34:14;;;;;;;30.20;20.63;;;;;;;;;;5093510;28;20429;-72
2021/07/17 08:36:40;;;;;;;28.07;19.23;;;;;;;;;;5095215;28;21015;-72
2021/07/17 08:39:06;;;;;;;32.53;20.80;;;;;;;;;;5091692;28;20432;-72
2021/07/17 08:41:34;;;;;;;27.60;19.37;;;;;;;;;;5075024;28;20445;-72
2021/07/17 08:44:00;;;;;;;24.93;18.73;;;;;;;;;;5074222;28;20405;-72
2021/07/17 08:46:27;;;;;;;25.90;19.80;;;;;;;;;;5058081;28;20488;-72
2021/07/17 08:48:54;;;;;;;27.07;20.87;;;;;;;;;;5054783;28;20409;-72
2021/07/17 08:51:20;;;;;;;28.27;19.00;;;;;;;;;;5092321;28;20428;-72
2021/07/17 08:53:47;;;;;;;30.13;21.60;;;;;;;;;;5095027;28;20900;-72
2021/07/17 08:56:13;;;;;;;27.83;20.80;;;;;;;;;;5057844;28;20466;-72
2021/07/17 08:58:39;;;;;;;38.27;22.30;;;;;;;;;;5054478;28;20409;-72
2021/07/17 09:01:05;;;;;;;27.20;18.60;;;;;;;;;;5067173;28;20433;-72
2021/07/17 09:03:31;;;;;;;26.80;19.27;;;;;;;;;;5074501;28;20420;-72
2021/07/17 09:05:57;;;;;;;25.30;20.20;;;;;;;;;;5085084;28;20475;-71
2021/07/17 09:08:23;;;;;;;43.10;19.30;;;;;;;;;;5094458;28;20507;-71
2021/07/17 09:10:50;;;;;;;26.73;20.90;;;;;;;;;;5075018;28;20840;-72
2021/07/17 09:13:21;;;;;;;27.17;18.73;;;;;;;;;;5054376;28;20414;-72
2021/07/17 09:15:49;;;;;;;26.70;18.67;;;;;;;;;;5071659;28;20467;-72
2021/07/17 09:18:16;;;;;;;33.17;19.80;;;;;;;;;;5094789;28;20417;-72
2021/07/17 09:20:56;;;;;;;26.90;19.70;;;;;;;;;;5075394;28;20430;-72
2021/07/17 09:23:26;;;;;;;28.40;20.07;;;;;;;;;;5054221;28;20504;-72
2021/07/17 09:25:52;;;;;;;27.17;17.77;;;;;;;;;;5054122;28;20877;-72
2021/07/17 09:28:18;;;;;;;26.07;19.10;;;;;;;;;;5063344;28;20769;-72
2021/07/17 09:30:45;;;;;;;28.80;20.53;;;;;;;;;;5092241;28;20431;-72
2021/07/17 09:33:11;;;;;;;23.60;17.30;;;;;;;;;;5094459;28;20411;-72
2021/07/17 09:35:38;;;;;;;20.03;15.07;;;;;;;;;;5079323;28;20552;-72
2021/07/17 09:38:06;;;;;;;20.83;15.20;;;;;;;;;;5053940;28;20402;-72
2021/07/17 09:40:50;;;;;;;21.73;16.77;;;;;;;;;;5059267;28;20428;-72
2021/07/17 09:43:26;;;;;;;19.47;15.63;;;;;;;;;;5074332;28;20420;-72
2021/07/17 09:45:53;;;;;;;20.70;14.80;;;;;;;;;;5064921;28;21022;-72
2021/07/17 09:48:22;;;;;;;23.53;16.77;;;;;;;;;;5054216;28;20899;-72
2021/07/17 09:50:49;;;;;;;21.43;14.77;;;;;;;;;;5069185;28;20432;-72
2021/07/17 09:53:33;;;;;;;19.07;14.87;;;;;;;;;;5053931;28;20817;-72
2021/07/17 09:56:20;;;;;;;16.00;13.60;;;;;;;;;;5077186;28;20456;-72
2021/07/17 09:58:46;;;;;;;17.33;13.80;;;;;;;;;;5073369;28;20444;-72
2021/07/17 10:01:17;;;;;;;17.67;13.90;;;;;;;;;;5082855;28;20990;-72
2021/07/17 10:03:44;;;;;;;19.07;14.50;;;;;;;;;;5092548;28;20404;-72
2021/07/17 10:06:10;;;;;;;18.87;12.87;;;;;;;;;;5091560;28;20470;-73
2021/07/17 10:08:36;;;;;;;22.50;15.60;;;;;;;;;;5093816;28;20432;-73
2021/07/17 10:11:11;;;;;;;19.40;13.93;;;;;;;;;;5075054;28;20429;-72
2021/07/17 10:13:41;;;;;;;16.93;13.70;;;;;;;;;;5053476;28;20393;-72
2021/07/17 10:16:17;;;;;;;20.03;13.90;;;;;;;;;;5053563;28;20472;-72
2021/07/17 10:18:43;;;;;;;21.53;15.90;;;;;;;;;;5053459;28;20825;-72
2021/07/17 10:21:09;;;;;;;20.63;15.20;;;;;;;;;;5052896;28;20848;-72
2021/07/17 10:23:36;;;;;;;17.93;14.53;;;;;;;;;;5053134;28;20402;-72
2021/07/17 10:26:02;;;;;;;23.57;14.77;;;;;;;;;;5075834;28;20522;-72
2021/07/17 10:28:30;;;;;;;26.93;15.00;;;;;;;;;;5073065;28;20451;-72
2021/07/17 10:30:56;;;;;;;24.20;16.20;;;;;;;;;;5059287;28;20465;-72
2021/07/17 10:33:22;;;;;;;20.83;15.63;;;;;;;;;;5056181;28;20421;-72
2021/07/17 10:35:49;;;;;;;24.87;17.40;;;;;;;;;;5063614;28;20464;-72
2021/07/17 10:38:15;;;;;;;25.30;17.03;;;;;;;;;;5093258;28;20400;-73
2021/07/17 10:40:41;;;;;;;24.13;17.63;;;;;;;;;;5091631;28;20431;-73
2021/07/17 10:43:08;;;;;;;24.43;16.97;;;;;;;;;;5093373;28;20435;-72
2021/07/17 10:45:35;;;;;;;23.00;16.67;;;;;;;;;;5087064;28;20448;-73
2021/07/17 10:48:01;;;;;;;23.30;17.60;;;;;;;;;;5053375;28;20496;-73
2021/07/17 10:50:35;;;;;;;24.90;18.10;;;;;;;;;;5056954;28;20458;-73
2021/07/17 10:53:01;;;;;;;22.00;15.93;;;;;;;;;;5092958;28;20398;-72
2021/07/17 10:55:27;;;;;;;25.07;17.73;;;;;;;;;;5089098;28;20491;-73
2021/07/17 10:57:54;;;;;;;24.87;17.50;;;;;;;;;;5072837;28;20462;-72
2021/07/17 11:00:39;;;;;;;25.47;16.57;;;;;;;;;;5071273;28;20496;-72
2021/07/17 11:03:17;;;;;;;23.20;16.40;;;;;;;;;;5060029;28;20420;-72
2021/07/17 11:05:43;;;;;;;22.87;17.00;;;;;;;;;;5068877;28;20522;-72
2021/07/17 11:08:29;;;;;;;35.80;19.77;;;;;;;;;;5052658;28;20437;-73
2021/07/17 11:10:55;;;;;;;24.57;17.70;;;;;;;;;;5062348;28;20787;-72
2021/07/17 11:13:35;;;;;;;28.43;19.03;;;;;;;;;;5092932;28;20736;-72
2021/07/17 11:16:02;;;;;;;27.70;19.00;;;;;;;;;;5090669;28;20459;-72
2021/07/17 11:18:31;;;;;;;24.07;17.87;;;;;;;;;;5092835;28;20396;-71
2021/07/17 11:21:00;;;;;;;28.87;18.77;;;;;;;;;;5081608;28;20418;-71
2021/07/17 11:23:33;;;;;;;28.10;17.47;;;;;;;;;;5052583;28;20460;-72
2021/07/17 11:26:00;;;;;;;25.80;18.40;;;;;;;;;;5057321;28;20451;-72
2021/07/17 11:28:47;;;;;;;25.07;17.33;;;;;;;;;;5072714;28;20409;-72
2021/07/17 11:31:29;;;;;;;28.83;18.87;;;;;;;;;;5065809;28;20433;-71
2021/07/17 11:34:22;;;;;;;27.67;18.43;;;;;;;;;;5056574;28;20409;-72
2021/07/17 11:36:51;;;;;;;29.27;19.90;;;;;;;;;;5056133;28;20535;-72
2021/07/17 11:39:18;;;;;;;29.80;17.97;;;;;;;;;;5056240;28;20402;-72
2021/07/17 11:41:44;;;;;;;32.00;19.60;;;;;;;;;;5078352;28;20451;-72
2021/07/17 11:44:10;;;;;;;33.30;19.00;;;;;;;;;;5096335;28;20404;-72
2021/07/17 11:46:36;;;;;;;22.80;18.90;;;;;;;;;;5075844;28;20503;-72
2021/07/17 11:49:03;;;;;;;27.20;16.70;;;;;;;;;;5056107;28;20452;-72
2021/07/17 11:51:30;;;;;;;30.30;17.23;;;;;;;;;;5055975;28;20869;-72
2021/07/17 11:53:56;;;;;;;25.43;17.57;;;;;;;;;;5056130;28;20489;-72
2021/07/17 11:56:22;;;;;;;29.47;18.60;;;;;;;;;;5063117;28;20868;-72
2021/07/17 11:58:48;;;;;;;24.30;16.50;;;;;;;;;;5074837;28;20454;-72
2021/07/17 12:01:15;;;;;;;25.53;17.60;;;;;;;;;;5057826;28;20426;-72
2021/07/17 12:03:41;;;;;;;29.17;17.93;;;;;;;;;;5071137;28;20406;-72
2021/07/17 12:06:08;;;;;;;25.53;15.70;;;;;;;;;;5093974;28;20513;-72
2021/07/17 12:08:34;;;;;;;23.70;16.83;;;;;;;;;;5096177;28;20412;-72
2021/07/17 12:11:00;;;;;;;20.63;18.07;;;;;;;;;;5094010;28;20428;-72
2021/07/17 12:13:26;;;;;;;23.60;16.70;;;;;;;;;;5095888;28;20772;-72
2021/07/17 12:15:52;;;;;;;26.93;16.80;;;;;;;;;;5093679;28;20827;-72
2021/07/17 12:18:18;;;;;;;25.43;17.10;;;;;;;;;;5095715;28;20403;-72
2021/07/17 12:20:53;;;;;;;22.00;15.90;;;;;;;;;;5093799;28;20817;-72
2021/07/17 12:23:26;;;;;;;20.87;15.03;;;;;;;;;;5095692;28;20387;-73
2021/07/17 12:25:56;;;;;;;21.33;15.80;;;;;;;;;;5061006;28;20453;-73
2021/07/17 12:28:22;;;;;;;17.73;15.60;;;;;;;;;;5064604;28;20520;-72
2021/07/17 12:30:52;;;;;;;24.57;15.20;;;;;;;;;;5089827;28;20931;-73
2021/07/17 12:33:26;;;;;;;22.27;14.97;;;;;;;;;;5095461;28;20430;-73
2021/07/17 12:36:01;;;;;;;20.40;14.43;;;;;;;;;;5093364;28;20467;-72
2021/07/17 12:38:29;;;;;;;17.70;13.93;;;;;;;;;;5095399;28;20411;-73
2021/07/17 12:40:59;;;;;;;18.73;13.93;;;;;;;;;;5079006;28;20772;-73
2021/07/17 12:43:32;;;;;;;19.50;13.67;;;;;;;;;;5074252;28;20436;-73
2021/07/17 12:46:02;;;;;;;18.13;13.63;;;;;;;;;;5085865;28;20439;-73
2021/07/17 12:48:28;;;;;;;18.10;12.53;;;;;;;;;;5095329;28;20399;-73
2021/07/17 12:51:07;;;;;;;17.53;13.77;;;;;;;;;;5091286;28;20447;-72
2021/07/17 12:53:33;;;;;;;20.23;13.17;;;;;;;;;;5095315;28;20810;-72
2021/07/17 12:55:59;;;;;;;20.17;13.40;;;;;;;;;;5080106;28;20463;-72
2021/07/17 12:58:26;;;;;;;17.00;12.23;;;;;;;;;;5074717;28;20488;-71
2021/07/17 13:00:52;;;;;;;15.87;11.90;;;;;;;;;;5083539;28;20473;-72
2021/07/17 13:03:18;;;;;;;20.63;12.83;;;;;;;;;;5094936;28;20454;-72
2021/07/17 13:05:51;;;;;;;17.60;11.90;;;;;;;;;;5092782;28;20498;-72
2021/07/17 13:08:25;;;;;;;14.33;11.30;;;;;;;;;;5094786;28;20410;-72
2021/07/17 13:10:52;;;;;;;16.13;11.40;;;;;;;;;;5092642;28;20438;-72
2021/07/17 13:13:25;;;;;;;16.47;11.30;;;;;;;;;;5094632;28;20399;-72
2021/07/17 13:15:52;;;;;;;17.87;12.17;;;;;;;;;;5092408;28;20804;-72
2021/07/17 13:18:21;;;;;;;14.07;10.60;;;;;;;;;;5094353;28;20805;-72
2021/07/17 13:21:20;;;;;;;16.10;12.00;;;;;;;;;;5075781;28;20433;-72
2021/07/17 13:23:53;;;;;;;16.20;12.90;;;;;;;;;;5021143;28;20410;-72
2021/07/17 13:26:21;;;;;;;17.67;13.80;;;;;;;;;;5079179;28;20451;-72
2021/07/17 13:28:47;;;;;;;15.33;10.47;;;;;;;;;;5094267;28;20404;-72
2021/07/17 13:31:14;;;;;;;14.27;10.47;;;;;;;;;;5077544;28;20439;-72
2021/07/17 13:33:40;;;;;;;15.43;11.23;;;;;;;;;;5089557;28;20436;-72
2021/07/17 13:36:07;;;;;;;17.87;11.50;;;;;;;;;;5062824;28;20465;-72
2021/07/17 13:38:34;;;;;;;15.53;10.43;;;;;;;;;;5053950;28;20455;-72
2021/07/17 13:41:07;;;;;;;14.90;10.50;;;;;;;;;;5053822;28;20864;-72
2021/07/17 13:43:33;;;;;;;11.83;10.63;;;;;;;;;;5053196;28;20397;-72
2021/07/17 13:46:03;;;;;;;11.23;9.73;;;;;;;;;;5064944;28;20963;-72
2021/07/17 13:48:29;;;;;;;13.50;11.23;;;;;;;;;;5073561;28;20423;-72
2021/07/17 13:51:13;;;;;;;13.70;10.30;;;;;;;;;;5080964;28;20924;-70
2021/07/17 13:53:39;;;;;;;14.37;11.20;;;;;;;;;;5094060;28;20380;-72
2021/07/17 13:56:12;;;;;;;13.53;9.77;;;;;;;;;;5081624;28;20472;-72
2021/07/17 13:58:39;;;;;;;13.70;10.20;;;;;;;;;;5073749;28;20395;-71
2021/07/17 14:01:16;;;;;;;15.70;9.97;;;;;;;;;;5063984;28;20518;-72
2021/07/17 14:03:42;;;;;;;15.50;11.00;;;;;;;;;;5053869;28;20385;-72
2021/07/17 14:06:12;;;;;;;11.40;10.20;;;;;;;;;;5053217;28;20517;-72
2021/07/17 14:08:40;;;;;;;11.20;9.10;;;;;;;;;;5053743;28;20437;-71
2021/07/17 14:11:08;;;;;;;13.17;10.17;;;;;;;;;;5071137;28;20436;-71
2021/07/17 14:13:35;;;;;;;13.73;10.23;;;;;;;;;;5093493;28;20459;-72
2021/07/17 14:16:02;;;;;;;13.03;10.00;;;;;;;;;;5075650;28;20489;-71
2021/07/17 14:18:28;;;;;;;13.13;10.40;;;;;;;;;;5074802;28;20420;-71
2021/07/17 14:20:55;;;;;;;12.10;8.83;;;;;;;;;;5078929;28;20510;-72
2021/07/17 14:23:21;;;;;;;11.47;10.00;;;;;;;;;;5093444;28;20734;-71
2021/07/17 14:25:48;;;;;;;11.13;9.30;;;;;;;;;;5079771;28;20447;-72